createdAt,value
2022-09-21T00:00:46.845Z,7.70
2022-09-21T00:06:48.817Z,7.60
2022-09-21T00:12:50.711Z,7.60
2022-09-21T00:18:52.789Z,7.50
2022-09-21T00:24:56.097Z,7.60
2022-09-21T00:31:07.032Z,7.50
2022-09-21T00:37:09.317Z,7.40
2022-09-21T00:43:16.498Z,7.20
2022-09-21T00:49:19.736Z,6.90
2022-09-21T00:55:32.338Z,6.90
2022-09-21T01:01:34.656Z,6.80
2022-09-21T01:07:45.005Z,6.80
2022-09-21T01:14:17.512Z,6.70
2022-09-21T01:20:49.878Z,6.70
2022-09-21T01:27:21.859Z,6.50
2022-09-21T01:33:34.331Z,6.40
2022-09-21T01:39:40.014Z,6.40
2022-09-21T01:45:49.903Z,6.40
2022-09-21T01:52:18.493Z,6.40
2022-09-21T01:58:38.917Z,6.40
2022-09-21T02:04:41.175Z,6.40
2022-09-21T02:10:51.471Z,6.40
2022-09-21T02:17:28.742Z,6.50
2022-09-21T02:24:01.979Z,6.60
2022-09-21T02:30:09.074Z,6.50
2022-09-21T02:36:31.866Z,6.50
2022-09-21T02:42:39.350Z,6.60
2022-09-21T02:49:09.594Z,6.60
2022-09-21T02:55:14.596Z,6.70
2022-09-21T03:01:18.308Z,6.80
2022-09-21T03:07:20.151Z,6.80
2022-09-21T03:13:22.030Z,6.70
2022-09-21T03:19:23.924Z,6.40
2022-09-21T03:25:26.203Z,6.30
2022-09-21T03:31:28.045Z,6.40
2022-09-21T03:37:31.066Z,6.40
2022-09-21T03:43:33.198Z,6.50
2022-09-21T03:49:35.179Z,6.50
2022-09-21T03:55:37.584Z,6.40
2022-09-21T04:01:39.541Z,6.50
2022-09-21T04:07:45.657Z,6.50
2022-09-21T04:13:53.256Z,6.50
2022-09-21T04:19:55.206Z,6.60
2022-09-21T04:25:57.488Z,6.40
2022-09-21T04:31:59.840Z,6.30
2022-09-21T04:38:02.016Z,6.50
2022-09-21T04:44:04.104Z,6.40
2022-09-21T04:50:07.065Z,6.40
2022-09-21T04:56:10.645Z,6.30
2022-09-21T05:02:12.571Z,6.20
2022-09-21T05:08:14.656Z,6.30
2022-09-21T05:14:16.659Z,6.30
2022-09-21T05:20:18.524Z,6.30
2022-09-21T05:26:21.025Z,6.50
2022-09-21T05:32:53.106Z,6.60
2022-09-21T05:38:56.746Z,6.70
2022-09-21T05:44:59.382Z,6.80
2022-09-21T05:51:36.422Z,6.80
2022-09-21T05:57:46.811Z,6.70
2022-09-21T06:03:50.175Z,6.60
2022-09-21T06:09:52.899Z,6.70
2022-09-21T06:15:54.923Z,6.70
2022-09-21T06:22:09.010Z,6.70
2022-09-21T06:28:13.355Z,6.60
2022-09-21T06:34:15.266Z,6.90
2022-09-21T06:40:17.196Z,7.10
2022-09-21T06:46:19.197Z,7.30
2022-09-21T06:52:21.115Z,7.30
2022-09-21T06:58:22.988Z,7.40
2022-09-21T07:04:25.311Z,7.30
2022-09-21T07:10:28.671Z,7.60
2022-09-21T07:16:31.095Z,7.70
2022-09-21T07:28:53.548Z,7.90
2022-09-21T07:34:58.339Z,7.80
2022-09-21T07:41:03.134Z,7.90
2022-09-21T07:47:05.458Z,8.40
2022-09-21T07:53:07.594Z,8.70
2022-09-21T07:59:11.260Z,9.00
2022-09-21T08:05:13.431Z,9.10
2022-09-21T08:11:18.716Z,9.40
2022-09-21T08:17:20.897Z,9.70
2022-09-21T08:29:39.612Z,10.00
2022-09-21T08:35:41.492Z,9.90
2022-09-21T08:42:04.417Z,9.90
2022-09-21T08:48:28.316Z,10.10
2022-09-21T08:54:51.031Z,10.70
2022-09-21T09:01:20.195Z,11.00
2022-09-21T09:07:45.703Z,11.30
2022-09-21T09:14:13.951Z,11.60
2022-09-21T09:20:30.889Z,12.40
2022-09-21T09:26:35.524Z,12.90
2022-09-21T09:33:16.488Z,13.80
2022-09-21T09:39:18.590Z,14.00
2022-09-21T09:45:47.491Z,14.50
2022-09-21T09:51:49.847Z,14.60
2022-09-21T09:57:55.107Z,14.70
2022-09-21T10:04:15.936Z,15.20
2022-09-21T10:10:32.779Z,16.80
2022-09-21T10:16:41.704Z,18.40
2022-09-21T10:22:55.257Z,20.90
2022-09-21T10:29:17.274Z,22.00
2022-09-21T10:35:19.883Z,24.20
2022-09-21T10:41:22.393Z,26.30
2022-09-21T10:47:39.275Z,26.10
2022-09-21T10:53:53.755Z,26.40
2022-09-21T10:59:57.357Z,27.60
2022-09-21T11:06:26.905Z,27.00
2022-09-21T11:12:43.225Z,27.60
2022-09-21T11:19:22.426Z,27.40
2022-09-21T11:25:36.704Z,28.10
2022-09-21T11:32:17.307Z,26.30
2022-09-21T11:39:03.923Z,26.80
2022-09-21T11:45:51.450Z,25.50
2022-09-21T11:52:02.105Z,25.60
2022-09-21T11:58:43.110Z,26.40
2022-09-21T12:05:31.512Z,26.50
2022-09-21T12:12:18.326Z,25.80
2022-09-21T12:18:52.460Z,26.10
2022-09-21T12:25:07.316Z,25.40
2022-09-21T12:32:07.114Z,24.60
2022-09-21T12:38:26.360Z,24.70
2022-09-21T12:44:54.248Z,26.00
2022-09-21T12:51:32.734Z,27.10
2022-09-21T12:58:14.643Z,28.50
2022-09-21T13:04:43.450Z,27.70
2022-09-21T13:11:08.007Z,28.80
2022-09-21T13:17:23.745Z,30.30
2022-09-21T13:23:41.799Z,30.10
2022-09-21T13:30:06.860Z,29.10
2022-09-21T13:36:34.169Z,30.10
2022-09-21T13:42:39.069Z,29.50
2022-09-21T13:48:42.305Z,30.10
2022-09-21T13:54:52.249Z,29.80
2022-09-21T14:01:29.243Z,28.60
2022-09-21T14:20:01.015Z,28.70
2022-09-21T14:26:33.901Z,26.60
2022-09-21T14:32:47.366Z,25.60
2022-09-21T14:39:00.439Z,27.50
2022-09-21T14:45:07.250Z,27.50
2022-09-21T14:51:55.714Z,27.80
2022-09-21T14:58:52.197Z,24.70
2022-09-21T15:11:47.029Z,26.20
2022-09-21T15:17:59.363Z,25.90
2022-09-21T15:24:18.891Z,24.30
2022-09-21T15:30:33.119Z,22.90
2022-09-21T15:36:41.098Z,25.20
2022-09-21T15:43:05.718Z,28.00
2022-09-21T15:49:13.419Z,29.20
2022-09-21T15:55:21.378Z,30.00
2022-09-21T16:01:26.184Z,30.00
2022-09-21T16:07:36.479Z,29.90
2022-09-21T16:13:57.846Z,29.30
2022-09-21T16:20:43.823Z,28.90
2022-09-21T16:34:43.117Z,26.60
2022-09-21T16:40:57.151Z,25.70
2022-09-21T16:47:04.880Z,23.00
2022-09-21T16:53:06.817Z,20.60
2022-09-21T16:59:21.892Z,19.50
2022-09-21T17:05:27.172Z,19.70
2022-09-21T17:11:36.210Z,19.20
2022-09-21T17:17:38.169Z,17.70
2022-09-21T17:23:42.110Z,16.50
2022-09-21T17:29:49.609Z,15.90
2022-09-21T17:35:53.116Z,15.40
2022-09-21T17:42:13.737Z,14.70
2022-09-21T17:48:22.110Z,14.10
2022-09-21T17:54:24.514Z,13.80
2022-09-21T18:01:01.737Z,13.30
2022-09-21T18:07:05.533Z,13.10
2022-09-21T18:13:24.054Z,13.10
2022-09-21T18:19:52.253Z,13.10
2022-09-21T18:25:57.206Z,13.10
2022-09-21T18:32:24.011Z,12.90
2022-09-21T18:39:02.731Z,12.70
2022-09-21T18:45:25.134Z,12.60
2022-09-21T18:51:43.184Z,12.60
2022-09-21T18:57:48.018Z,12.60
2022-09-21T19:03:50.630Z,12.50
2022-09-21T19:10:22.721Z,12.30
2022-09-21T19:16:35.117Z,12.20
2022-09-21T19:23:14.799Z,12.10
2022-09-21T19:29:35.343Z,11.80
2022-09-21T19:35:42.725Z,11.50
2022-09-21T19:42:01.190Z,11.10
2022-09-21T19:48:10.508Z,10.90
2022-09-21T19:54:36.341Z,10.90
2022-09-21T20:00:38.802Z,10.70
2022-09-21T20:06:54.179Z,10.30
2022-09-21T20:13:32.239Z,10.10
2022-09-21T20:19:44.410Z,10.00
2022-09-21T20:26:15.316Z,9.90
2022-09-21T20:32:18.231Z,9.90
2022-09-21T20:38:20.193Z,9.90
2022-09-21T20:44:26.165Z,9.80
2022-09-21T20:50:30.340Z,9.70
2022-09-21T21:03:26.793Z,9.40
2022-09-21T21:09:28.678Z,9.40
2022-09-21T21:15:32.086Z,9.20
2022-09-21T21:21:34.545Z,9.30
2022-09-21T21:27:36.587Z,9.20
2022-09-21T21:33:39.976Z,9.10
2022-09-21T21:39:42.141Z,9.20
2022-09-21T21:45:51.282Z,9.10
2022-09-21T21:51:53.683Z,9.00
2022-09-21T21:57:57.151Z,8.90
2022-09-21T22:04:01.943Z,8.90
2022-09-21T22:10:04.211Z,8.80
2022-09-21T22:16:28.888Z,8.60
2022-09-21T22:22:38.896Z,8.60
2022-09-21T22:35:05.111Z,8.40
2022-09-21T22:41:14.471Z,8.20
2022-09-21T22:47:16.959Z,8.30
2022-09-21T22:53:20.212Z,8.10
2022-09-21T22:59:22.058Z,8.10
2022-09-21T23:05:24.005Z,8.10
2022-09-21T23:11:37.163Z,8.00
2022-09-21T23:17:41.874Z,7.90
2022-09-21T23:23:44.983Z,7.80
2022-09-21T23:29:46.962Z,7.70
2022-09-21T23:35:51.613Z,7.60
2022-09-21T23:41:54.625Z,7.60
2022-09-21T23:47:56.580Z,7.50
2022-09-21T23:53:59.864Z,7.40
